Time;durP1;ratioP1;P1;durP2;ratioP2;P2;SDS_P1;SDS_P2;PMS_P1;PMS_P2;Temp;Humidity;BMP_temperature;BMP_pressure;BME280_temperature;BME280_humidity;BME280_pressure;Samples;Min_cycle;Max_cycle;Signal;HPM_P1;HPM_P2
2023/12/24 00:01:52;;;;;;;11.70;11.10;;;8.00;99.90;;;;;;5069982;28;20199;-81
2023/12/24 00:04:20;;;;;;;11.37;10.77;;;8.00;99.90;;;;;;5071347;28;20233;-81
2023/12/24 00:06:46;;;;;;;11.40;10.80;;;8.00;99.90;;;;;;5067989;28;20215;-80
2023/12/24 00:09:13;;;;;;;11.23;10.53;;;8.00;99.90;;;;;;5070502;28;20685;-81
2023/12/24 00:11:40;;;;;;;11.30;10.70;;;8.00;99.90;;;;;;5066289;28;20206;-80
2023/12/24 00:14:07;;;;;;;11.20;10.60;;;8.00;99.90;;;;;;5070240;28;20186;-80
2023/12/24 00:16:33;;;;;;;11.23;10.63;;;8.00;99.90;;;;;;5070239;28;20253;-80
2023/12/24 00:19:00;;;;;;;11.23;10.63;;;8.10;99.90;;;;;;5057848;28;20207;-80
2023/12/24 00:21:28;;;;;;;11.50;10.80;;;8.00;99.90;;;;;;5078526;28;20264;-80
2023/12/24 00:23:55;;;;;;;12.00;11.20;;;8.10;99.90;;;;;;5067855;28;20219;-80
2023/12/24 00:26:22;;;;;;;11.43;10.83;;;8.10;99.90;;;;;;5070171;28;20294;-80
2023/12/24 00:28:51;;;;;;;11.90;11.30;;;8.10;99.90;;;;;;5067216;28;20250;-80
2023/12/24 00:31:17;;;;;;;11.60;11.00;;;8.10;99.90;;;;;;5070868;28;20609;-80
2023/12/24 00:33:44;;;;;;;11.70;11.10;;;8.10;99.90;;;;;;5068711;28;20288;-80
2023/12/24 00:36:11;;;;;;;11.70;11.10;;;8.10;99.90;;;;;;5067655;28;20214;-81
2023/12/24 00:38:39;;;;;;;11.40;10.80;;;8.10;99.90;;;;;;5059995;28;20191;-81
2023/12/24 00:41:06;;;;;;;11.40;10.80;;;8.10;99.90;;;;;;5066619;28;20600;-80
2023/12/24 00:43:33;;;;;;;11.27;10.60;;;8.10;99.90;;;;;;5066069;28;20206;-80
2023/12/24 00:46:00;;;;;;;11.20;10.60;;;8.10;99.90;;;;;;5062336;28;20223;-80
2023/12/24 00:48:27;;;;;;;11.57;10.87;;;8.10;99.90;;;;;;5069308;28;20211;-80
2023/12/24 00:50:53;;;;;;;11.87;11.17;;;8.10;99.90;;;;;;5067665;28;20802;-80
2023/12/24 00:53:20;;;;;;;12.17;11.50;;;8.10;99.90;;;;;;5070077;28;20202;-80
2023/12/24 00:55:48;;;;;;;12.00;11.30;;;8.10;99.90;;;;;;5066888;28;20618;-80
2023/12/24 00:58:17;;;;;;;11.90;11.30;;;8.10;99.90;;;;;;5069443;28;20197;-81
2023/12/24 01:00:46;;;;;;;11.97;11.27;;;8.10;99.90;;;;;;5066969;28;20293;-80
2023/12/24 01:03:13;;;;;;;11.70;11.10;;;8.10;99.90;;;;;;5068402;28;20233;-80
2023/12/24 01:05:40;;;;;;;11.60;11.00;;;8.10;99.90;;;;;;5070901;28;20241;-81
2023/12/24 01:08:07;;;;;;;11.53;10.93;;;8.10;99.90;;;;;;5067809;28;20256;-80
2023/12/24 01:10:33;;;;;;;11.83;11.23;;;8.10;99.90;;;;;;5069820;28;20284;-80
2023/12/24 01:13:02;;;;;;;12.30;11.70;;;8.10;99.90;;;;;;5066800;28;20567;-80
2023/12/24 01:15:29;;;;;;;12.03;11.43;;;8.10;99.90;;;;;;5069135;28;20665;-80
2023/12/24 01:17:56;;;;;;;11.97;11.37;;;8.10;99.90;;;;;;5065914;28;20197;-80
2023/12/24 01:20:23;;;;;;;12.10;11.50;;;8.10;99.90;;;;;;5067996;28;20229;-81
2023/12/24 01:22:50;;;;;;;11.90;11.20;;;8.10;99.90;;;;;;5064598;28;20201;-79
2023/12/24 01:25:17;;;;;;;11.60;11.00;;;8.10;99.90;;;;;;5067105;28;20221;-80
2023/12/24 01:27:44;;;;;;;12.20;11.50;;;8.10;99.90;;;;;;5070077;28;20201;-80
2023/12/24 01:30:13;;;;;;;11.70;11.10;;;8.20;99.90;;;;;;5066571;28;20219;-80
2023/12/24 01:32:39;;;;;;;11.80;11.20;;;8.20;99.90;;;;;;5068803;28;20252;-80
2023/12/24 01:35:07;;;;;;;11.83;11.23;;;8.10;99.90;;;;;;5070738;28;20225;-80
2023/12/24 01:37:33;;;;;;;12.00;11.40;;;8.20;99.90;;;;;;5059850;28;20253;-80
2023/12/24 01:40:00;;;;;;;11.93;11.33;;;8.20;99.90;;;;;;5068993;28;20214;-80
2023/12/24 01:42:27;;;;;;;12.63;12.00;;;8.20;99.90;;;;;;5069296;28;20252;-80
2023/12/24 01:44:54;;;;;;;11.90;11.30;;;8.20;99.90;;;;;;5065261;28;20215;-80
2023/12/24 01:47:22;;;;;;;12.50;11.90;;;8.20;99.90;;;;;;5070155;28;20255;-80
2023/12/24 01:49:50;;;;;;;12.10;11.50;;;8.20;99.90;;;;;;5062535;28;20223;-80
2023/12/24 01:52:18;;;;;;;12.00;11.40;;;8.20;99.90;;;;;;5071235;28;20189;-81
2023/12/24 01:54:47;;;;;;;12.17;11.47;;;8.20;99.90;;;;;;5066747;28;20286;-80
2023/12/24 01:57:13;;;;;;;12.20;11.60;;;8.20;99.90;;;;;;5057817;28;20577;-80
2023/12/24 01:59:41;;;;;;;12.00;11.40;;;8.20;99.90;;;;;;5067545;28;20222;-80
2023/12/24 02:02:08;;;;;;;11.80;11.20;;;8.20;99.90;;;;;;5066683;28;20194;-80
2023/12/24 02:04:38;;;;;;;11.90;11.20;;;8.20;99.90;;;;;;5068262;28;20219;-80
2023/12/24 02:07:06;;;;;;;11.43;10.83;;;8.20;99.90;;;;;;5064883;28;20277;-81
2023/12/24 02:09:33;;;;;;;12.00;11.20;;;8.20;99.90;;;;;;5061837;28;20720;-80
2023/12/24 02:12:00;;;;;;;11.70;11.10;;;8.20;99.90;;;;;;5066553;28;20199;-80
2023/12/24 02:14:27;;;;;;;11.60;11.00;;;8.20;99.90;;;;;;5069408;28;20203;-80
2023/12/24 02:16:56;;;;;;;11.93;11.33;;;8.20;99.90;;;;;;5065874;28;20199;-80
2023/12/24 02:19:23;;;;;;;11.87;11.17;;;8.20;99.90;;;;;;5068496;28;20190;-80
2023/12/24 02:21:51;;;;;;;11.87;11.27;;;8.20;99.90;;;;;;5066154;28;20195;-80
2023/12/24 02:24:18;;;;;;;11.57;10.97;;;8.20;99.90;;;;;;5066597;28;20191;-80
2023/12/24 02:26:51;;;;;;;11.73;11.13;;;8.20;99.90;;;;;;5067123;28;20227;-80
2023/12/24 02:29:27;;;;;;;11.63;11.03;;;8.10;99.90;;;;;;5056217;28;20195;-80
2023/12/24 02:32:02;;;;;;;11.80;11.20;;;8.20;99.90;;;;;;5067761;28;20621;-79
2023/12/24 02:34:30;;;;;;;11.60;10.90;;;8.20;99.90;;;;;;5065661;28;20190;-80
2023/12/24 02:36:59;;;;;;;11.80;11.20;;;8.20;99.90;;;;;;5071961;28;20244;-80
2023/12/24 02:39:26;;;;;;;11.87;11.27;;;8.20;99.90;;;;;;5070579;28;20203;-80
2023/12/24 02:41:52;;;;;;;12.00;11.40;;;8.20;99.90;;;;;;5071967;28;20649;-80
2023/12/24 02:44:19;;;;;;;11.70;11.10;;;8.20;99.90;;;;;;5068408;28;20220;-80
2023/12/24 02:46:46;;;;;;;11.77;11.17;;;8.20;99.90;;;;;;5071847;28;20724;-80
2023/12/24 02:49:14;;;;;;;11.60;11.00;;;8.20;99.90;;;;;;5073782;28;20624;-80
2023/12/24 02:51:41;;;;;;;12.00;11.30;;;8.20;99.90;;;;;;5079667;22;20223;-77
2023/12/24 02:54:09;;;;;;;11.63;11.03;;;8.20;99.90;;;;;;5057197;28;20195;-77
2023/12/24 02:56:36;;;;;;;11.70;11.10;;;8.30;99.90;;;;;;5056517;28;20196;-77
2023/12/24 02:59:03;;;;;;;12.10;11.47;;;8.30;99.90;;;;;;5056752;28;20195;-77
2023/12/24 03:01:30;;;;;;;11.60;11.00;;;8.30;99.90;;;;;;5055792;28;20225;-77
2023/12/24 03:03:57;;;;;;;12.40;11.70;;;8.30;99.90;;;;;;5056232;28;20191;-77
2023/12/24 03:06:24;;;;;;;12.50;11.80;;;8.30;99.90;;;;;;5056982;28;20234;-77
2023/12/24 03:08:51;;;;;;;12.30;11.70;;;8.30;99.90;;;;;;5052007;28;20196;-77
2023/12/24 03:11:19;;;;;;;12.37;11.67;;;8.30;99.90;;;;;;5056445;28;20230;-78
2023/12/24 03:13:45;;;;;;;12.07;11.47;;;8.30;99.90;;;;;;5050725;28;20276;-78
2023/12/24 03:16:12;;;;;;;11.97;11.37;;;8.30;99.90;;;;;;5057070;28;20608;-77
2023/12/24 03:18:39;;;;;;;12.27;11.63;;;8.30;99.90;;;;;;5050617;28;20191;-77
2023/12/24 03:21:06;;;;;;;12.03;11.43;;;8.30;99.90;;;;;;5055112;28;20679;-77
2023/12/24 03:23:33;;;;;;;12.30;11.60;;;8.30;99.90;;;;;;5056003;28;20195;-78
2023/12/24 03:26:00;;;;;;;12.37;11.57;;;8.30;99.90;;;;;;5053493;28;20223;-77
2023/12/24 03:28:28;;;;;;;12.27;11.57;;;8.30;99.90;;;;;;5055943;28;20199;-77
2023/12/24 03:30:55;;;;;;;12.10;11.40;;;8.30;99.90;;;;;;5050320;28;20768;-77
2023/12/24 03:33:22;;;;;;;12.20;11.57;;;8.30;99.90;;;;;;5058391;28;20672;-78
2023/12/24 03:35:48;;;;;;;12.20;11.60;;;8.30;99.90;;;;;;5050540;28;20660;-77
2023/12/24 03:38:17;;;;;;;11.83;11.23;;;8.30;99.90;;;;;;5048186;28;20620;-77
2023/12/24 03:40:43;;;;;;;12.17;11.47;;;8.30;99.90;;;;;;5057625;28;20265;-77
2023/12/24 03:43:10;;;;;;;11.93;11.33;;;8.30;99.90;;;;;;5054534;28;20553;-77
2023/12/24 03:45:38;;;;;;;12.03;11.27;;;8.30;99.90;;;;;;5055223;28;20657;-79
2023/12/24 03:48:07;;;;;;;12.20;11.50;;;8.30;99.90;;;;;;5055440;28;20191;-77
2023/12/24 03:50:33;;;;;;;11.97;11.37;;;8.30;99.90;;;;;;5058328;28;20253;-78
2023/12/24 03:53:00;;;;;;;12.20;11.60;;;8.30;99.90;;;;;;5056819;28;20195;-77
2023/12/24 03:55:27;;;;;;;12.40;11.70;;;8.30;99.90;;;;;;5054267;28;20266;-76
2023/12/24 03:57:54;;;;;;;12.27;11.60;;;8.40;99.90;;;;;;5047822;28;20198;-78
2023/12/24 04:00:21;;;;;;;12.30;11.70;;;8.40;99.90;;;;;;5054359;28;20215;-77
2023/12/24 04:02:50;;;;;;;12.00;11.40;;;8.30;99.90;;;;;;5058173;28;20260;-77
2023/12/24 04:05:17;;;;;;;12.10;11.40;;;8.30;99.90;;;;;;5055052;28;20231;-77
2023/12/24 04:07:44;;;;;;;11.57;10.97;;;8.30;99.90;;;;;;5057940;28;20191;-77
2023/12/24 04:10:11;;;;;;;11.80;11.20;;;8.30;99.90;;;;;;5049720;28;20223;-77
2023/12/24 04:12:38;;;;;;;11.60;11.00;;;8.30;99.90;;;;;;5057381;28;20388;-77
2023/12/24 04:15:07;;;;;;;11.67;11.07;;;8.30;99.90;;;;;;5054564;28;20199;-77
2023/12/24 04:17:35;;;;;;;11.87;11.20;;;8.30;99.90;;;;;;5056591;28;20203;-77
2023/12/24 04:20:04;;;;;;;11.90;11.10;;;8.30;99.90;;;;;;5055771;28;20219;-77
2023/12/24 04:22:32;;;;;;;11.53;10.93;;;8.30;99.90;;;;;;5054258;28;20717;-77
2023/12/24 04:24:59;;;;;;;11.70;11.10;;;8.30;99.90;;;;;;5058146;28;20199;-77
2023/12/24 04:27:26;;;;;;;11.60;11.00;;;8.30;99.90;;;;;;5053616;28;20207;-77
2023/12/24 04:29:53;;;;;;;11.43;10.83;;;8.30;99.90;;;;;;5048943;28;20206;-77
2023/12/24 04:32:21;;;;;;;11.30;10.70;;;8.30;99.90;;;;;;5051087;28;20234;-77
2023/12/24 04:34:48;;;;;;;11.67;11.03;;;8.30;99.90;;;;;;5047137;28;20206;-78
2023/12/24 04:37:16;;;;;;;11.80;11.10;;;8.30;99.90;;;;;;5050098;28;20194;-77
2023/12/24 04:39:43;;;;;;;11.77;11.17;;;8.30;99.90;;;;;;5050900;28;20231;-77
2023/12/24 04:42:10;;;;;;;11.50;10.90;;;8.30;99.90;;;;;;5055138;28;20226;-77
2023/12/24 04:44:38;;;;;;;11.63;11.03;;;8.30;99.90;;;;;;5049869;28;20207;-77
2023/12/24 04:47:08;;;;;;;11.30;10.70;;;8.40;99.90;;;;;;5051420;28;20222;-77
2023/12/24 04:49:35;;;;;;;11.60;11.00;;;8.40;99.90;;;;;;5055045;28;20207;-77
2023/12/24 04:52:02;;;;;;;11.43;10.83;;;8.30;99.90;;;;;;5046751;28;20278;-78
2023/12/24 04:54:30;;;;;;;11.30;10.70;;;8.30;99.90;;;;;;5055121;28;20203;-77
2023/12/24 04:56:58;;;;;;;11.30;10.70;;;8.30;99.90;;;;;;5048235;28;20217;-77
2023/12/24 04:59:25;;;;;;;11.20;10.60;;;8.30;99.90;;;;;;5049120;28;20199;-77
2023/12/24 05:01:52;;;;;;;11.40;10.80;;;8.30;99.90;;;;;;5050751;28;20211;-77
2023/12/24 05:04:19;;;;;;;11.10;10.50;;;8.30;99.90;;;;;;5048866;28;20199;-76
2023/12/24 05:06:46;;;;;;;11.30;10.70;;;8.40;99.90;;;;;;5045985;28;20223;-77
2023/12/24 05:09:12;;;;;;;11.60;11.00;;;8.40;99.90;;;;;;5046424;28;20199;-77
2023/12/24 05:11:41;;;;;;;11.43;10.83;;;8.40;99.90;;;;;;5048660;28;20215;-77
2023/12/24 05:14:08;;;;;;;11.50;10.90;;;8.40;99.90;;;;;;5048908;28;20203;-77
2023/12/24 05:16:34;;;;;;;11.03;10.43;;;8.40;99.90;;;;;;5044774;28;20202;-77
2023/12/24 05:19:01;;;;;;;11.37;10.67;;;8.40;99.90;;;;;;5043945;28;20203;-78
2023/12/24 05:21:29;;;;;;;11.37;10.77;;;8.40;99.90;;;;;;5043447;28;20245;-77
2023/12/24 05:23:57;;;;;;;11.50;10.90;;;8.40;99.90;;;;;;5041840;28;20580;-77
2023/12/24 05:26:24;;;;;;;11.70;11.10;;;8.40;99.90;;;;;;5049496;28;20671;-77
2023/12/24 05:28:54;;;;;;;11.80;11.20;;;8.40;99.90;;;;;;5048480;28;20199;-78
2023/12/24 05:31:20;;;;;;;11.63;11.03;;;8.40;99.90;;;;;;5040767;28;20525;-81
2023/12/24 05:33:47;;;;;;;11.70;11.00;;;8.50;99.90;;;;;;5049312;28;20203;-76
2023/12/24 05:36:14;;;;;;;11.50;10.80;;;8.50;99.90;;;;;;5046700;28;20680;-77
2023/12/24 05:38:42;;;;;;;11.13;10.53;;;8.40;99.90;;;;;;5053445;28;20195;-76
2023/12/24 05:41:10;;;;;;;11.40;10.80;;;8.40;99.90;;;;;;5052190;28;20215;-77
2023/12/24 05:43:37;;;;;;;11.20;10.60;;;8.40;99.90;;;;;;5051452;28;20529;-77
2023/12/24 05:46:11;;;;;;;11.43;10.83;;;8.30;99.90;;;;;;5051152;28;20219;-77
2023/12/24 05:48:38;;;;;;;11.63;10.93;;;8.30;99.90;;;;;;5049359;28;20278;-76
2023/12/24 05:51:05;;;;;;;11.50;10.90;;;8.30;99.90;;;;;;5051817;28;20249;-77
2023/12/24 05:53:32;;;;;;;11.60;11.00;;;8.30;99.90;;;;;;5055063;28;20195;-77
2023/12/24 05:55:59;;;;;;;11.70;11.10;;;8.30;99.90;;;;;;5050635;28;20567;-76
2023/12/24 05:58:26;;;;;;;11.30;10.70;;;8.30;99.90;;;;;;5055606;28;20721;-77
2023/12/24 06:00:52;;;;;;;11.33;10.73;;;8.30;99.90;;;;;;5052261;28;20273;-77
2023/12/24 06:03:21;;;;;;;11.30;10.70;;;8.30;99.90;;;;;;5054712;28;20199;-76
2023/12/24 06:05:47;;;;;;;11.30;10.70;;;8.30;99.90;;;;;;5047974;28;20261;-77
2023/12/24 06:08:15;;;;;;;11.40;10.80;;;8.30;99.90;;;;;;5051509;28;20211;-77
2023/12/24 06:10:42;;;;;;;11.30;10.70;;;8.30;99.90;;;;;;5054353;28;20589;-77
2023/12/24 06:13:09;;;;;;;11.33;10.73;;;8.30;99.90;;;;;;5041787;28;20241;-77
2023/12/24 06:15:36;;;;;;;10.87;10.27;;;8.30;99.90;;;;;;5051426;28;20210;-77
2023/12/24 06:18:04;;;;;;;11.27;10.57;;;8.40;99.90;;;;;;5040768;28;20208;-78
2023/12/24 06:20:33;;;;;;;11.47;10.87;;;8.40;99.90;;;;;;5055066;28;20735;-78
2023/12/24 06:23:00;;;;;;;11.90;11.30;;;8.40;99.90;;;;;;5055215;28;20234;-76
2023/12/24 06:25:26;;;;;;;12.37;11.67;;;8.40;99.90;;;;;;5051573;28;20218;-77
2023/12/24 06:27:58;;;;;;;12.33;11.63;;;8.40;99.90;;;;;;5054273;28;20588;-80
2023/12/24 06:30:25;;;;;;;12.30;11.70;;;8.40;99.90;;;;;;5062078;28;20334;-80
2023/12/24 06:32:52;;;;;;;12.30;11.60;;;8.40;99.90;;;;;;5057621;28;20253;-78
2023/12/24 06:35:21;;;;;;;12.60;11.80;;;8.40;99.90;;;;;;5047431;28;20192;-78
2023/12/24 06:37:49;;;;;;;11.90;11.30;;;8.40;99.90;;;;;;5056026;28;20195;-80
2023/12/24 06:40:16;;;;;;;11.80;11.10;;;8.40;99.90;;;;;;5049419;28;20211;-81
2023/12/24 06:42:43;;;;;;;11.60;10.90;;;8.50;99.90;;;;;;5053638;28;20199;-78
2023/12/24 06:45:10;;;;;;;12.00;11.30;;;8.50;99.90;;;;;;5054027;28;20693;-78
2023/12/24 06:47:37;;;;;;;12.10;11.30;;;8.50;99.90;;;;;;5050996;28;20220;-80
2023/12/24 06:50:04;;;;;;;11.70;11.00;;;8.50;99.90;;;;;;5050127;28;20230;-79
2023/12/24 06:52:37;;;;;;;11.97;11.27;;;8.50;99.90;;;;;;5050239;28;20203;-78
2023/12/24 06:55:06;;;;;;;11.73;11.10;;;8.50;99.90;;;;;;5049740;28;20215;-79
2023/12/24 06:57:33;;;;;;;11.73;11.00;;;8.50;99.90;;;;;;5052144;28;20570;-76
2023/12/24 07:00:00;;;;;;;11.73;11.13;;;8.50;99.90;;;;;;5041942;28;20725;-76
2023/12/24 07:02:27;;;;;;;12.43;11.73;;;8.50;99.90;;;;;;5054004;28;20203;-80
2023/12/24 07:04:54;;;;;;;12.40;11.60;;;8.50;99.90;;;;;;5056020;28;20206;-77
2023/12/24 07:07:37;;;;;;;;;;;;;;;;;;;;;
2023/12/24 07:10:39;;;;;;;11.80;11.20;;;8.50;99.90;;;;;;5040228;28;20306;-80
2023/12/24 07:13:07;;;;;;;11.90;11.30;;;8.50;99.90;;;;;;5048308;28;20252;-78
2023/12/24 07:15:57;;;;;;;11.83;11.03;;;8.50;99.90;;;;;;5044949;28;20742;-80
2023/12/24 07:18:44;;;;;;;11.50;10.90;;;8.60;99.90;;;;;;5049158;28;20736;-81
2023/12/24 07:21:16;;;;;;;11.90;11.30;;;8.60;99.90;;;;;;5041195;28;20223;-80
2023/12/24 07:23:48;;;;;;;11.67;11.07;;;8.60;99.90;;;;;;5052860;28;20203;-80
2023/12/24 07:26:18;;;;;;;11.80;11.20;;;8.60;99.90;;;;;;5044917;28;20748;-78
2023/12/24 07:29:21;;;;;;;12.07;11.47;;;8.60;99.90;;;;;;5054196;28;20195;-81
2023/12/24 07:31:48;;;;;;;11.53;10.87;;;8.60;99.90;;;;;;5066609;22;20727;-80
2023/12/24 07:34:24;;;;;;;11.53;10.93;;;8.60;99.90;;;;;;5066631;28;20569;-80
2023/12/24 07:37:28;;;;;;;12.10;11.50;;;8.60;99.90;;;;;;5067765;28;20270;-80
2023/12/24 07:39:55;;;;;;;11.90;11.30;;;8.70;99.90;;;;;;5055257;28;20235;-77
2023/12/24 07:42:23;;;;;;;11.40;10.80;;;8.70;99.90;;;;;;5055679;28;20187;-80
2023/12/24 07:44:56;;;;;;;11.10;10.50;;;8.70;99.90;;;;;;5064570;28;20212;-77
2023/12/24 07:50:19;;;;;;;12.10;11.50;;;8.80;99.90;;;;;;5039326;28;20231;-78
2023/12/24 07:56:50;;;;;;;11.83;11.13;;;8.90;99.90;;;;;;5058635;28;20198;-78
2023/12/24 07:59:28;;;;;;;12.03;11.43;;;8.90;99.90;;;;;;5060714;28;20199;-77
2023/12/24 08:02:10;;;;;;;11.80;11.20;;;9.00;99.90;;;;;;5055729;28;20601;-78
2023/12/24 08:04:36;;;;;;;11.90;11.30;;;9.00;99.90;;;;;;5051765;28;20203;-79
2023/12/24 08:10:17;;;;;;;12.03;11.43;;;9.00;99.90;;;;;;5050939;28;20322;-78
2023/12/24 08:16:14;;;;;;;12.67;11.87;;;9.00;99.90;;;;;;5048769;28;20230;-80
2023/12/24 08:18:43;;;;;;;12.30;11.70;;;9.10;99.90;;;;;;5048269;28;20195;-82
2023/12/24 08:21:13;;;;;;;12.37;11.67;;;9.10;99.90;;;;;;5059094;28;20258;-79
2023/12/24 08:23:46;;;;;;;12.33;11.73;;;9.20;99.90;;;;;;5065820;28;20223;-82
2023/12/24 08:26:45;;;;;;;12.20;11.60;;;9.20;99.90;;;;;;5062945;28;20199;-82
2023/12/24 08:37:16;;;;;;;12.03;11.43;;;9.30;99.90;;;;;;4891298;29;20201;-84
2023/12/24 08:40:03;;;;;;;12.00;11.40;;;9.30;99.90;;;;;;4865510;29;20224;-83
2023/12/24 08:43:12;;;;;;;11.57;10.97;;;9.30;99.90;;;;;;4905778;28;20507;-83
2023/12/24 08:46:28;;;;;;;11.60;11.00;;;9.40;99.90;;;;;;5040084;28;20207;-83
2023/12/24 08:52:33;;;;;;;12.53;11.93;;;9.40;99.90;;;;;;5050075;28;20569;-84
2023/12/24 08:54:59;;;;;;;12.97;12.17;;;9.50;99.90;;;;;;5059344;28;20221;-78
2023/12/24 08:57:26;;;;;;;12.60;11.90;;;9.60;99.90;;;;;;5054897;28;20578;-79
2023/12/24 08:59:53;;;;;;;12.60;12.00;;;9.60;99.90;;;;;;5054277;28;20195;-77
2023/12/24 09:02:20;;;;;;;12.33;11.63;;;9.60;99.90;;;;;;5053464;28;20252;-77
2023/12/24 09:04:47;;;;;;;13.00;11.80;;;9.70;99.90;;;;;;5055861;28;20247;-77
2023/12/24 09:07:14;;;;;;;12.23;11.53;;;9.70;99.90;;;;;;5054329;28;20219;-77
2023/12/24 09:09:42;;;;;;;12.10;11.50;;;9.80;99.90;;;;;;5055517;28;20203;-77
2023/12/24 09:12:09;;;;;;;11.80;11.10;;;9.80;99.90;;;;;;5056369;28;20743;-78
2023/12/24 09:14:36;;;;;;;12.30;11.70;;;9.80;99.90;;;;;;5060830;28;20243;-78
2023/12/24 09:35:30;;;;;;;11.67;11.07;;;10.20;99.90;;;;;;5501093;23;20300;-82
2023/12/24 09:38:10;;;;;;;11.73;11.13;;;10.20;99.90;;;;;;4887775;29;20200;-82
2023/12/24 09:40:38;;;;;;;11.60;11.00;;;10.20;99.90;;;;;;4880746;29;20281;-84
2023/12/24 09:43:37;;;;;;;12.10;11.43;;;10.20;99.90;;;;;;4877538;29;20704;-83
2023/12/24 09:46:04;;;;;;;12.17;11.47;;;10.20;99.90;;;;;;4873756;29;20249;-78
2023/12/24 09:48:31;;;;;;;12.30;11.60;;;10.20;99.90;;;;;;4878084;29;20221;-80
2023/12/24 09:50:58;;;;;;;11.57;10.87;;;10.30;99.90;;;;;;4879162;29;20774;-80
2023/12/24 09:53:46;;;;;;;11.97;11.37;;;10.30;99.90;;;;;;4880691;29;20209;-84
2023/12/24 09:56:19;;;;;;;12.10;11.37;;;10.30;99.90;;;;;;4874166;29;20209;-81
2023/12/24 09:58:47;;;;;;;11.50;10.90;;;10.30;99.90;;;;;;4887578;29;20196;-84
2023/12/24 10:01:14;;;;;;;11.77;11.13;;;10.30;99.90;;;;;;4897384;29;20231;-77
2023/12/24 10:03:41;;;;;;;10.90;10.30;;;10.30;99.90;;;;;;4881767;29;20600;-77
2023/12/24 10:06:10;;;;;;;10.70;10.10;;;10.20;99.90;;;;;;4880497;29;20230;-82
2023/12/24 10:08:38;;;;;;;10.73;10.13;;;10.20;99.90;;;;;;4894774;29;20221;-81
2023/12/24 10:11:21;;;;;;;11.20;10.60;;;10.20;99.90;;;;;;4894270;29;20266;-81
2023/12/24 10:13:59;;;;;;;11.30;10.70;;;10.20;99.90;;;;;;4877374;29;20201;-82
2023/12/24 10:16:29;;;;;;;11.20;10.60;;;10.10;99.90;;;;;;4895870;29;20209;-82
2023/12/24 10:18:58;;;;;;;11.80;11.20;;;10.10;99.90;;;;;;4881751;29;20632;-83
2023/12/24 10:21:25;;;;;;;11.67;11.07;;;10.10;99.90;;;;;;4880068;29;20653;-84
2023/12/24 10:23:52;;;;;;;11.50;10.90;;;10.10;99.90;;;;;;4896244;29;20214;-85
2023/12/24 10:26:23;;;;;;;11.80;11.20;;;10.10;99.90;;;;;;4881126;29;20202;-78
2023/12/24 10:28:51;;;;;;;12.40;11.60;;;10.20;99.90;;;;;;4882581;29;20255;-80
2023/12/24 10:31:18;;;;;;;11.60;11.00;;;10.20;99.90;;;;;;4883278;29;20233;-81
2023/12/24 10:33:45;;;;;;;11.90;11.30;;;10.30;99.90;;;;;;4897299;29;20198;-79
2023/12/24 10:36:12;;;;;;;11.90;11.20;;;10.30;99.90;;;;;;4896592;29;20217;-80
2023/12/24 10:38:39;;;;;;;11.57;10.97;;;10.30;99.90;;;;;;4874678;29;20199;-79
2023/12/24 10:41:07;;;;;;;11.53;10.93;;;10.30;99.90;;;;;;4881605;29;20218;-79
2023/12/24 10:43:35;;;;;;;11.50;10.90;;;10.40;99.90;;;;;;4896504;29;20627;-79
2023/12/24 10:46:03;;;;;;;11.00;10.40;;;10.40;99.90;;;;;;4883890;29;20205;-79
2023/12/24 10:48:30;;;;;;;10.53;9.93;;;10.30;99.90;;;;;;4881690;29;20312;-80
2023/12/24 10:50:56;;;;;;;10.83;10.23;;;10.40;99.90;;;;;;4879634;29;20257;-80
2023/12/24 10:53:23;;;;;;;11.17;10.57;;;10.40;99.90;;;;;;4880142;29;20681;-81
2023/12/24 10:55:59;;;;;;;11.33;10.73;;;10.40;99.90;;;;;;4876540;29;20206;-80
2023/12/24 10:58:38;;;;;;;10.87;10.27;;;10.40;99.90;;;;;;4877058;29;20224;-80
2023/12/24 11:01:08;;;;;;;11.23;10.63;;;10.40;99.90;;;;;;4879468;29;20230;-80
2023/12/24 11:03:47;;;;;;;11.20;10.60;;;10.40;99.90;;;;;;4885945;29;20210;-80
2023/12/24 11:06:47;;;;;;;11.00;10.40;;;10.50;99.90;;;;;;4887473;29;20249;-79
2023/12/24 11:09:43;;;;;;;11.30;10.70;;;10.50;99.90;;;;;;4885604;29;20280;-80
2023/12/24 11:12:10;;;;;;;11.40;10.80;;;10.60;99.90;;;;;;4884805;29;20233;-80
2023/12/24 11:14:45;;;;;;;11.50;10.90;;;10.70;99.90;;;;;;4883840;29;20206;-80
2023/12/24 11:17:32;;;;;;;11.80;11.20;;;10.80;99.90;;;;;;4878223;29;20269;-82
2023/12/24 11:20:29;;;;;;;11.67;11.07;;;10.80;99.90;;;;;;4891765;29;20226;-81
2023/12/24 11:23:13;;;;;;;11.57;10.97;;;10.90;99.90;;;;;;4899855;29;20209;-81
2023/12/24 11:25:42;;;;;;;11.97;11.37;;;10.90;99.90;;;;;;4879445;29;20199;-81
2023/12/24 11:28:12;;;;;;;11.77;11.10;;;11.00;99.90;;;;;;4878427;29;20223;-81
2023/12/24 11:31:04;;;;;;;11.77;11.17;;;11.10;99.90;;;;;;4880998;29;20234;-82
2023/12/24 11:33:47;;;;;;;11.50;10.90;;;11.10;99.90;;;;;;4877405;29;20245;-85
2023/12/24 11:36:16;;;;;;;12.20;11.50;;;11.20;99.90;;;;;;4896338;29;20224;-80
2023/12/24 11:38:45;;;;;;;12.07;11.47;;;11.30;99.90;;;;;;4895978;29;20204;-80
2023/12/24 11:41:13;;;;;;;12.13;11.43;;;11.40;99.90;;;;;;4881604;29;20290;-80
2023/12/24 11:43:41;;;;;;;11.97;11.27;;;11.40;99.90;;;;;;4899408;29;20212;-80
2023/12/24 11:46:10;;;;;;;12.17;11.57;;;11.50;99.90;;;;;;4881527;29;20248;-80
2023/12/24 11:48:37;;;;;;;12.30;11.60;;;11.50;99.90;;;;;;4881038;29;20211;-81
2023/12/24 11:51:06;;;;;;;12.00;11.27;;;11.50;99.90;;;;;;4874070;29;20228;-80
2023/12/24 11:53:33;;;;;;;12.00;11.30;;;11.50;99.90;;;;;;4895797;29;20204;-80
2023/12/24 11:56:05;;;;;;;11.70;11.10;;;11.60;99.90;;;;;;4897409;29;20235;-81
2023/12/24 11:58:32;;;;;;;11.90;11.23;;;11.60;99.90;;;;;;4879396;29;20216;-81
2023/12/24 12:01:00;;;;;;;10.97;10.37;;;11.60;99.90;;;;;;4880327;29;20251;-80
2023/12/24 12:03:29;;;;;;;11.20;10.60;;;11.60;99.90;;;;;;4880787;29;20487;-81
2023/12/24 12:05:55;;;;;;;10.70;10.20;;;11.70;99.90;;;;;;4878383;29;20212;-81
2023/12/24 12:08:22;;;;;;;10.87;10.27;;;11.70;99.90;;;;;;4876659;29;20217;-80
2023/12/24 12:10:49;;;;;;;11.20;10.60;;;11.70;99.90;;;;;;4876714;29;20302;-82
2023/12/24 12:13:16;;;;;;;11.30;10.70;;;11.70;99.90;;;;;;4881850;29;20262;-81
2023/12/24 12:15:43;;;;;;;11.37;10.77;;;11.70;99.90;;;;;;4880162;29;20209;-82
2023/12/24 12:18:10;;;;;;;11.50;10.90;;;11.60;99.90;;;;;;4895307;29;20228;-82
2023/12/24 12:20:38;;;;;;;11.10;10.50;;;11.60;99.90;;;;;;4894401;29;20235;-82
2023/12/24 12:23:05;;;;;;;11.47;10.87;;;11.60;99.90;;;;;;4879015;29;20212;-80
2023/12/24 12:25:32;;;;;;;11.80;11.20;;;11.50;99.90;;;;;;4874907;29;20221;-80
2023/12/24 12:27:58;;;;;;;11.33;10.73;;;11.50;99.90;;;;;;4888812;29;20224;-80
2023/12/24 12:30:25;;;;;;;11.67;11.07;;;11.50;99.90;;;;;;4893302;29;20717;-80
2023/12/24 12:32:52;;;;;;;11.50;10.90;;;11.50;99.90;;;;;;4890181;29;20636;-80
2023/12/24 12:35:19;;;;;;;11.30;10.70;;;11.60;99.90;;;;;;4894566;29;20216;-80
2023/12/24 12:37:47;;;;;;;11.73;11.03;;;11.50;99.90;;;;;;4879456;29;20204;-78
2023/12/24 12:40:14;;;;;;;11.70;11.10;;;11.50;99.90;;;;;;4877099;29;20280;-80
2023/12/24 12:42:41;;;;;;;11.67;11.07;;;11.50;99.90;;;;;;4895097;29;20566;-80
2023/12/24 12:45:09;;;;;;;11.60;11.00;;;11.50;99.90;;;;;;4880849;29;20626;-80
2023/12/24 12:47:36;;;;;;;11.80;11.20;;;11.40;99.90;;;;;;4880154;29;20291;-80
2023/12/24 12:50:04;;;;;;;11.90;11.30;;;11.30;99.90;;;;;;4879920;29;20662;-80
2023/12/24 12:52:31;;;;;;;11.60;11.00;;;11.20;99.90;;;;;;4880436;29;20212;-80
2023/12/24 12:55:06;;;;;;;12.03;11.33;;;11.10;99.90;;;;;;4901887;29;20209;-79
2023/12/24 12:57:35;;;;;;;11.37;10.77;;;11.00;99.90;;;;;;4896757;29;20237;-82
2023/12/24 13:00:08;;;;;;;11.37;10.77;;;11.00;99.90;;;;;;4880682;29;20297;-79
2023/12/24 13:02:35;;;;;;;12.07;11.40;;;10.90;99.90;;;;;;4893355;29;20211;-80
2023/12/24 13:05:01;;;;;;;12.40;11.70;;;10.90;99.90;;;;;;4881551;29;20570;-80
2023/12/24 13:07:32;;;;;;;11.63;10.93;;;10.90;99.90;;;;;;4880808;29;20210;-81
2023/12/24 13:09:59;;;;;;;12.13;11.43;;;10.90;99.90;;;;;;4879664;29;20228;-81
2023/12/24 13:12:29;;;;;;;12.07;11.37;;;10.90;99.90;;;;;;4880013;29;20203;-80
2023/12/24 13:14:58;;;;;;;11.50;10.90;;;10.90;99.90;;;;;;4881758;29;20233;-79
2023/12/24 13:17:25;;;;;;;11.50;10.90;;;10.90;99.90;;;;;;4880188;29;20210;-81
2023/12/24 13:19:54;;;;;;;11.50;10.90;;;10.90;99.90;;;;;;4871585;29;20624;-79
2023/12/24 13:22:23;;;;;;;11.60;11.00;;;10.90;99.90;;;;;;4872865;29;20218;-81
2023/12/24 13:24:52;;;;;;;11.50;10.90;;;10.80;99.90;;;;;;4893383;29;20238;-81
2023/12/24 13:27:18;;;;;;;11.30;10.70;;;10.80;99.90;;;;;;4878104;29;20212;-79
2023/12/24 13:29:47;;;;;;;11.50;10.90;;;10.80;99.90;;;;;;4879497;29;20220;-80
2023/12/24 13:32:14;;;;;;;11.30;10.70;;;10.70;99.90;;;;;;4879155;29;20644;-80